.
WxDataArchive / Data Records for 2013-05-11
2013-05-10 May 2013 2013-05-12

Data Records for Saturday, 11 May 2013

Time	Temp	Chill	HIndex	Humid	Dewpt	 Wind 	HiWind	WindDir	Rain 	Barom 
-----	----	-----	------	-----	-----	------	------	-------	-----	----- 
00:00	48.2	48.2	48.2	84	43.6	0	2	315	0.00	29.880 
00:05	48.0	48.0	48.0	84	43.4	1	3	315	0.00	29.880 
00:10	48.0	48.0	48.0	84	43.4	1	3	292	0.00	29.880 
00:15	48.0	48.0	48.0	84	43.4	0	1	292	0.00	29.871 
00:20	48.2	48.2	48.2	84	43.6	0	2	0	0.00	29.871 
00:25	48.2	48.2	48.2	84	43.6	0	2	0	0.00	29.871 
00:30	48.2	48.2	48.2	84	43.6	1	4	248	0.00	29.868 
00:35	48.0	48.0	48.0	84	43.4	1	3	315	0.00	29.868 
00:40	48.0	48.0	48.0	83	43.1	0	3	315	0.00	29.868 
00:45	48.0	48.0	48.0	83	43.1	0	2	292	0.00	29.876 
00:50	48.0	48.0	48.0	84	43.4	0	3	292	0.00	29.876 
00:55	48.0	48.0	48.0	84	43.4	0	3	270	0.00	29.876 
01:00	47.9	47.9	47.9	84	43.3	0	2	270	0.00	29.872 
01:05	47.9	47.9	47.9	84	43.3	1	3	270	0.00	29.872 
01:10	47.9	47.9	47.9	83	43.0	0	3	0	0.00	29.872 
01:15	47.7	47.7	47.7	83	42.8	0	3	270	0.00	29.880 
01:20	47.7	47.7	47.7	84	43.1	0	3	270	0.00	29.880 
01:25	47.7	47.7	47.7	84	43.1	0	3	270	0.00	29.880 
01:30	47.6	47.6	47.6	84	43.0	0	2	270	0.00	29.881 
01:35	47.6	47.6	47.6	84	43.0	0	3	270	0.00	29.881 
01:40	47.6	47.6	47.6	83	42.7	0	1	270	0.00	29.881 
01:45	47.6	47.6	47.6	83	42.7	0	1	270	0.00	29.882 
01:50	47.6	47.6	47.6	83	42.7	0	1	270	0.00	29.882 
01:55	47.4	47.4	47.4	83	42.5	0	2	270	0.00	29.882 
02:00	47.4	47.4	47.4	82	42.2	0	3	270	0.00	29.884 
02:05	47.4	47.4	47.4	82	42.2	0	2	315	0.00	29.884 
02:10	47.4	47.4	47.4	82	42.2	0	1	315	0.00	29.884 
02:15	47.3	47.3	47.3	82	42.1	0	1	315	0.00	29.884 
02:20	47.3	47.3	47.3	82	42.1	0	3	315	0.00	29.884 
02:25	47.1	47.1	47.1	82	41.9	0	2	315	0.00	29.884 
02:30	47.1	47.1	47.1	82	41.9	0	2	315	0.00	29.885 
02:35	47.1	47.1	47.1	82	41.9	0	1	315	0.00	29.885 
02:40	47.1	47.1	47.1	81	41.6	0	1	315	0.00	29.885 
02:45	47.1	47.1	47.1	81	41.6	0	3	315	0.00	29.885 
02:50	47.0	47.0	47.0	80	41.2	1	3	315	0.00	29.885 
02:55	47.0	47.0	47.0	80	41.2	0	1	315	0.00	29.885 
03:00	47.1	47.1	47.1	80	41.3	0	2	315	0.00	29.885 
03:05	47.1	47.1	47.1	80	41.3	0	1	315	0.00	29.885 
03:10	47.1	47.1	47.1	81	41.6	0	0	---	0.00	29.885 
03:15	47.1	47.1	47.1	81	41.6	0	1	315	0.00	29.890 
03:20	47.1	47.1	47.1	81	41.6	0	1	315	0.00	29.890 
03:25	47.1	47.1	47.1	81	41.6	0	3	315	0.00	29.890 
03:30	47.1	47.1	47.1	81	41.6	0	1	315	0.00	29.893 
03:35	47.1	47.1	47.1	81	41.6	0	1	315	0.00	29.893 
03:40	47.1	47.1	47.1	81	41.6	0	0	---	0.00	29.893 
03:45	47.1	47.1	47.1	81	41.6	0	1	315	0.00	29.893 
03:50	47.3	47.3	47.3	81	41.8	0	1	315	0.00	29.893 
03:55	47.3	47.3	47.3	81	41.8	0	2	315	0.00	29.893 
04:00	47.3	47.3	47.3	82	42.1	1	4	270	0.00	29.890 
04:05	47.3	47.3	47.3	82	42.1	1	3	270	0.00	29.890 
04:10	47.1	47.1	47.1	82	41.9	1	4	270	0.00	29.890 
04:15	47.1	47.1	47.1	83	42.2	0	3	338	0.00	29.887 
04:20	47.1	47.1	47.1	83	42.2	0	3	270	0.00	29.887 
04:25	47.1	47.1	47.1	84	42.5	0	1	270	0.00	29.887 
04:30	47.1	47.1	47.1	84	42.5	1	3	270	0.00	29.889 
04:35	47.1	47.1	47.1	84	42.5	0	3	270	0.00	29.889 
04:40	47.1	47.1	47.1	84	42.5	0	2	270	0.00	29.889 
04:45	47.1	47.1	47.1	85	42.8	0	2	270	0.00	29.884 
04:50	47.1	47.1	47.1	85	42.8	0	3	270	0.00	29.884 
04:55	47.1	47.1	47.1	85	42.8	1	3	315	0.00	29.884 
05:00	47.1	47.1	47.1	85	42.8	1	3	315	0.00	29.881 
05:05	47.1	47.1	47.1	85	42.8	0	2	315	0.00	29.881 
05:10	47.1	47.1	47.1	85	42.8	1	3	315	0.00	29.881 
05:15	47.1	47.1	47.1	85	42.8	1	3	315	0.00	29.883 
05:20	47.1	47.1	47.1	85	42.8	1	3	315	0.00	29.883 
05:25	47.3	47.3	47.3	85	43.0	0	3	315	0.00	29.883 
05:30	47.3	47.3	47.3	85	43.0	1	4	315	0.00	29.878 
05:35	47.3	47.3	47.3	85	43.0	1	4	315	0.00	29.878 
05:40	47.3	47.3	47.3	85	43.0	0	3	225	0.00	29.878 
05:45	47.3	47.3	47.3	85	43.0	1	2	225	0.00	29.876 
05:50	47.3	47.3	47.3	86	43.3	0	2	225	0.00	29.876 
05:55	47.3	47.3	47.3	86	43.3	1	2	225	0.00	29.876 
06:00	47.3	47.3	47.3	86	43.3	1	3	292	0.00	29.878 
06:05	47.4	47.4	47.4	86	43.4	0	3	292	0.00	29.878 
06:10	47.4	47.4	47.4	86	43.4	1	3	292	0.00	29.878 
06:15	47.4	47.4	47.4	86	43.4	1	3	315	0.00	29.885 
06:20	47.4	47.4	47.4	86	43.4	0	2	315	0.00	29.885 
06:25	47.4	47.4	47.4	87	43.7	0	1	315	0.00	29.885 
06:30	47.4	47.4	47.4	87	43.7	0	2	315	0.00	29.885 
06:35	47.4	47.4	47.4	87	43.7	0	2	315	0.00	29.885 
06:40	47.4	47.4	47.4	88	44.0	0	2	315	0.00	29.885 
06:45	47.4	47.4	47.4	88	44.0	0	1	315	0.00	29.882 
06:50	47.4	47.4	47.4	88	44.0	0	1	315	0.00	29.882 
06:55	47.4	47.4	47.4	88	44.0	0	0	---	0.00	29.882 
07:00	47.4	47.4	47.4	89	44.3	0	1	315	0.00	29.880 
07:05	47.4	47.4	47.4	89	44.3	0	1	315	0.00	29.880 
07:10	47.4	47.4	47.4	89	44.3	0	2	315	0.00	29.880 
07:15	47.4	47.4	47.4	89	44.3	1	2	315	0.00	29.888 
07:20	47.6	47.6	47.6	89	44.5	0	2	315	0.00	29.888 
07:25	47.6	47.6	47.6	89	44.5	0	1	315	0.00	29.888 
07:30	47.6	47.6	47.6	90	44.8	0	1	315	0.00	29.886 
07:35	47.6	47.6	47.6	90	44.8	0	1	315	0.00	29.886 
07:40	47.6	47.6	47.6	90	44.8	0	1	315	0.00	29.886 
07:45	47.6	47.6	47.6	90	44.8	1	3	315	0.00	29.887 
07:50	47.6	47.6	47.6	89	44.5	1	3	315	0.00	29.887 
07:55	47.6	47.6	47.6	89	44.5	0	1	270	0.00	29.887 
08:00	47.6	47.6	47.6	89	44.5	0	2	270	0.00	29.879 
08:05	47.6	47.6	47.6	89	44.5	0	2	270	0.00	29.879 
08:10	47.7	47.7	47.7	89	44.6	0	2	270	0.00	29.879 
08:15	47.7	47.7	47.7	88	44.3	1	3	270	0.00	29.883 
08:20	47.6	47.6	47.6	88	44.2	1	4	270	0.00	29.883 
08:25	47.6	47.6	47.6	88	44.2	1	3	292	0.00	29.883 
08:30	47.6	47.6	47.6	88	44.2	0	2	292	0.00	29.883 
08:35	47.7	47.7	47.7	88	44.3	0	3	292	0.00	29.883 
08:40	47.7	47.7	47.7	87	44.0	1	5	248	0.00	29.883 
08:45	47.7	47.7	47.7	87	44.0	0	1	248	0.00	29.884 
08:50	47.9	47.9	47.9	87	44.2	0	2	248	0.00	29.884 
08:55	48.0	48.0	48.0	87	44.3	1	3	248	0.00	29.884 
09:00	48.0	48.0	48.0	87	44.3	1	3	248	0.00	29.882 
09:05	48.0	48.0	48.0	87	44.3	0	3	248	0.00	29.882 
09:10	48.0	48.0	48.0	87	44.3	0	2	248	0.00	29.882 
09:15	47.9	47.9	47.9	86	43.9	2	4	248	0.00	29.891 
09:20	47.9	47.9	47.9	86	43.9	2	4	248	0.00	29.891 
09:25	47.9	47.9	47.9	87	44.2	1	3	248	0.00	29.891 
09:30	47.9	47.9	47.9	86	43.9	1	3	248	0.00	29.890 
09:35	47.9	47.9	47.9	86	43.9	1	2	248	0.00	29.890 
09:40	47.9	47.9	47.9	86	43.9	1	2	248	0.00	29.890 
09:45	47.9	47.9	47.9	86	43.9	1	3	248	0.00	29.888 
09:50	47.9	47.9	47.9	86	43.9	1	3	248	0.00	29.888 
09:55	48.0	48.0	48.0	86	44.0	1	2	248	0.00	29.888 
10:00	47.9	47.9	47.9	86	43.9	1	3	248	0.00	29.889 
10:05	47.9	47.9	47.9	86	43.9	0	3	248	0.00	29.889 
10:10	47.9	47.9	47.9	86	43.9	2	4	248	0.00	29.889 
10:15	47.9	47.9	47.9	86	43.9	1	4	338	0.00	29.894 
10:20	47.7	47.7	47.7	85	43.4	1	3	270	0.00	29.894 
10:25	47.7	47.7	47.7	85	43.4	0	2	292	0.00	29.894 
10:30	47.9	47.9	47.9	85	43.6	1	3	292	0.00	29.888 
10:35	48.0	48.0	48.0	85	43.7	0	2	292	0.00	29.888 
10:40	48.2	48.2	48.2	85	43.9	1	3	292	0.00	29.888 
10:45	48.3	48.3	48.3	85	44.0	0	3	292	0.00	29.887 
10:50	48.5	48.5	48.5	85	44.2	0	1	292	0.00	29.887 
10:55	48.5	48.5	48.5	85	44.2	0	1	292	0.00	29.887 
11:00	48.6	48.6	48.6	85	44.3	1	3	292	0.00	29.890 
11:05	48.6	48.6	48.6	84	44.0	1	3	292	0.00	29.890 
11:10	48.6	48.6	48.6	84	44.0	1	3	292	0.00	29.890 
11:15	48.6	48.6	48.6	84	44.0	0	2	292	0.00	29.893 
11:20	48.8	48.8	48.8	84	44.2	0	2	292	0.00	29.893 
11:25	49.1	49.1	49.1	84	44.5	0	3	292	0.00	29.893 
11:30	49.4	49.4	49.4	83	44.5	0	3	292	0.00	29.893 
11:35	49.5	49.5	49.5	82	44.2	1	4	292	0.00	29.893 
11:40	49.6	49.6	49.6	81	44.0	1	4	292	0.00	29.893 
11:45	49.6	49.6	49.6	81	44.0	1	3	292	0.00	29.894 
11:50	49.8	49.8	49.8	81	44.2	1	3	292	0.00	29.894 
11:55	49.8	49.8	49.8	81	44.2	1	5	292	0.00	29.894 
12:00	49.8	49.8	49.8	81	44.2	1	4	292	0.00	29.894 
12:05	49.8	49.8	49.8	81	44.2	2	4	292	0.00	29.894 
12:10	49.8	49.8	49.8	80	43.9	2	4	292	0.00	29.894 
12:15	49.9	49.9	49.9	81	44.3	1	3	292	0.00	29.886 
12:20	49.8	49.8	49.8	81	44.2	2	4	292	0.00	29.886 
12:25	50.1	50.1	50.1	81	44.5	1	2	292	0.00	29.886 
12:30	50.2	50.2	50.2	81	44.6	1	2	292	0.00	29.880 
12:35	50.4	50.4	50.4	80	44.5	1	2	292	0.00	29.880 
12:40	50.4	50.4	50.4	80	44.5	1	4	292	0.00	29.880 
12:45	50.5	50.5	50.5	80	44.6	1	2	292	0.00	29.871 
12:50	50.5	50.5	50.5	80	44.6	1	3	292	0.00	29.871 
12:55	50.7	50.7	50.7	79	44.4	1	4	292	0.00	29.871 
13:00	50.7	50.7	50.7	79	44.4	2	4	270	0.00	29.877 
13:05	50.8	50.8	50.8	79	44.5	0	1	270	0.00	29.877 
13:10	51.0	51.0	51.0	78	44.4	2	4	270	0.00	29.877 
13:15	51.1	51.1	51.1	79	44.8	1	4	270	0.00	29.865 
13:20	51.4	51.4	51.4	79	45.1	1	3	270	0.00	29.865 
13:25	51.7	51.7	51.7	79	45.4	0	3	270	0.00	29.865 
13:30	51.7	51.7	51.7	77	44.7	1	4	270	0.00	29.865 
13:35	51.7	51.7	51.7	77	44.7	1	3	248	0.00	29.865 
13:40	51.7	51.7	51.7	78	45.1	1	3	248	0.00	29.865 
13:45	51.7	51.7	51.7	77	44.7	1	4	248	0.00	29.866 
13:50	51.6	51.6	51.6	78	45.0	1	5	248	0.00	29.866 
13:55	51.7	51.7	51.7	78	45.1	1	3	202	0.00	29.866 
14:00	51.9	51.9	51.9	77	44.9	1	3	225	0.00	29.863 
14:05	51.9	51.9	51.9	77	44.9	1	4	248	0.00	29.863 
14:10	52.0	52.0	52.0	78	45.4	0	2	248	0.00	29.863 
14:15	52.2	52.2	52.2	78	45.5	1	4	248	0.00	29.860 
14:20	52.2	52.2	52.2	77	45.2	2	4	248	0.00	29.860 
14:25	52.2	52.2	52.2	77	45.2	1	3	248	0.00	29.860 
14:30	52.3	52.3	52.3	77	45.3	1	3	248	0.00	29.861 
14:35	52.3	52.3	52.3	76	45.0	1	3	248	0.00	29.861 
14:40	52.6	52.6	52.6	76	45.3	1	2	248	0.00	29.861 
14:45	52.9	52.9	52.9	76	45.5	1	3	248	0.00	29.850 
14:50	53.1	53.1	53.1	76	45.7	1	4	248	0.00	29.850 
14:55	53.1	53.1	53.1	75	45.4	1	5	270	0.00	29.850 
15:00	53.1	53.1	53.1	74	45.0	1	5	248	0.00	29.860 
15:05	53.1	53.1	53.1	74	45.0	1	3	292	0.00	29.860 
15:10	53.2	53.2	53.2	74	45.1	1	4	248	0.00	29.860 
15:15	53.5	53.5	53.5	73	45.1	1	3	225	0.00	29.852 
15:20	53.5	53.5	53.5	74	45.4	0	3	225	0.00	29.852 
15:25	53.5	53.5	53.5	73	45.1	0	3	248	0.00	29.852 
15:30	53.3	53.3	53.3	74	45.2	0	3	248	0.00	29.847 
15:35	53.2	53.2	53.2	74	45.1	1	4	248	0.00	29.847 
15:40	53.2	53.2	53.2	74	45.1	0	4	248	0.00	29.847 
15:45	53.2	53.2	53.2	74	45.1	1	5	248	0.00	29.843 
15:50	53.2	53.2	53.2	75	45.5	1	3	225	0.00	29.843 
15:55	53.2	53.2	53.2	74	45.1	1	5	248	0.00	29.843 
16:00	53.1	53.1	53.1	74	45.0	1	4	248	0.00	29.846 
16:05	52.9	52.9	52.9	76	45.5	0	2	248	0.00	29.846 
16:10	52.8	52.8	52.8	77	45.8	1	4	248	0.00	29.846 
16:15	52.8	52.8	52.8	79	46.5	0	2	248	0.00	29.839 
16:20	52.9	52.9	52.9	80	46.9	0	3	248	0.00	29.839 
16:25	52.9	52.9	52.9	80	46.9	0	4	270	0.00	29.839 
16:30	52.9	52.9	52.9	81	47.2	0	2	270	0.00	29.831 
16:35	53.1	53.1	53.1	80	47.1	1	3	270	0.00	29.831 
16:40	53.2	53.2	53.2	80	47.2	0	2	315	0.00	29.831 
16:45	53.3	53.3	53.3	80	47.3	0	3	22	0.00	29.827 
16:50	53.6	53.6	53.6	80	47.6	0	2	248	0.00	29.827 
16:55	54.1	54.1	54.1	79	47.7	0	3	292	0.00	29.827 
17:00	54.4	54.4	54.4	78	47.7	0	2	270	0.00	29.814 
17:05	54.5	54.5	54.5	78	47.8	0	3	270	0.00	29.814 
17:10	54.7	54.7	54.7	77	47.6	1	4	270	0.00	29.814 
17:15	54.8	54.8	54.8	77	47.7	0	2	248	0.00	29.813 
17:20	55.1	55.1	55.1	77	48.0	1	3	248	0.00	29.813 
17:25	55.3	55.3	55.3	77	48.2	0	2	248	0.00	29.813 
17:30	55.3	55.3	55.3	76	47.9	0	2	248	0.00	29.813 
17:35	55.4	55.4	55.4	77	48.3	0	2	248	0.00	29.813 
17:40	55.4	55.4	55.4	75	47.6	2	8	248	0.00	29.813 
17:45	51.7	51.7	51.7	69	41.9	6	13	292	0.00	29.848 
17:50	48.8	46.8	48.8	78	42.2	5	18	292	0.00	29.848 
17:55	47.3	47.3	47.3	83	42.4	3	8	292	0.01	29.848 
18:00	46.4	46.4	46.4	85	42.1	3	14	270	0.00	29.872 
18:05	45.7	43.9	45.7	85	41.5	4	11	270	0.00	29.872 
18:10	45.2	45.2	45.2	87	41.6	3	10	292	0.00	29.872 
18:15	45.2	45.2	45.2	88	41.9	2	7	315	0.00	29.882 
18:20	44.8	44.8	44.8	87	41.2	3	9	270	0.01	29.882 
18:25	44.6	44.6	44.6	87	41.0	2	8	315	0.00	29.882 
18:30	44.5	44.5	44.5	86	40.6	3	10	270	0.00	29.884 
18:35	44.5	44.5	44.5	86	40.6	1	6	338	0.00	29.884 
18:40	44.5	44.5	44.5	85	40.3	2	5	292	0.00	29.884 
18:45	44.5	44.5	44.5	84	40.0	2	6	338	0.00	29.891 
18:50	44.8	44.8	44.8	82	39.6	2	5	292	0.00	29.891 
18:55	45.1	45.1	45.1	81	39.6	3	7	270	0.00	29.891 
19:00	45.7	45.7	45.7	79	39.6	2	7	338	0.00	29.897 
19:05	46.1	46.1	46.1	76	39.0	2	5	338	0.00	29.897 
19:10	46.4	46.4	46.4	76	39.3	2	5	315	0.00	29.897 
19:15	46.5	46.5	46.5	74	38.7	2	7	0	0.00	29.901 
19:20	46.8	46.8	46.8	73	38.6	2	5	338	0.00	29.901 
19:25	46.8	46.8	46.8	71	37.9	3	7	338	0.00	29.901 
19:30	47.1	47.1	47.1	71	38.2	2	5	292	0.00	29.902 
19:35	47.3	47.3	47.3	69	37.7	2	5	292	0.00	29.902 
19:40	47.4	47.4	47.4	69	37.7	2	7	0	0.00	29.902 
19:45	47.4	47.4	47.4	67	37.0	2	6	315	0.00	29.913 
19:50	47.3	47.3	47.3	67	36.9	2	10	315	0.00	29.913 
19:55	47.3	47.3	47.3	66	36.5	1	5	315	0.00	29.913 
20:00	47.3	47.3	47.3	66	36.5	2	5	270	0.00	29.919 
20:05	47.3	47.3	47.3	65	36.1	2	6	315	0.00	29.919 
20:10	47.1	47.1	47.1	66	36.3	1	4	292	0.00	29.919 
20:15	47.0	47.0	47.0	65	35.9	3	7	338	0.00	29.922 
20:20	47.0	47.0	47.0	65	35.9	2	6	315	0.00	29.922 
20:25	46.8	46.8	46.8	65	35.7	1	5	270	0.00	29.922 
20:30	46.7	46.7	46.7	65	35.6	1	4	292	0.00	29.924 
20:35	46.5	46.5	46.5	63	34.6	2	6	292	0.00	29.924 
20:40	46.4	46.4	46.4	61	33.7	2	6	270	0.00	29.924 
20:45	46.4	46.4	46.4	60	33.3	2	6	315	0.00	29.927 
20:50	46.2	46.2	46.2	60	33.1	1	4	270	0.00	29.927 
20:55	46.2	46.2	46.2	61	33.5	1	3	270	0.00	29.927 
21:00	46.1	46.1	46.1	61	33.4	1	2	315	0.00	29.930 
21:05	46.0	46.0	46.0	61	33.3	1	4	315	0.00	29.930 
21:10	46.0	46.0	46.0	62	33.7	1	3	315	0.00	29.930 
21:15	45.8	45.8	45.8	62	33.5	1	3	315	0.00	29.936 
21:20	45.7	45.7	45.7	63	33.8	1	2	315	0.00	29.936 
21:25	45.7	45.7	45.7	63	33.8	1	3	315	0.00	29.936 
21:30	45.5	45.5	45.5	63	33.6	1	3	315	0.00	29.939 
21:35	45.5	45.5	45.5	63	33.6	1	3	315	0.00	29.939 
21:40	45.5	45.5	45.5	63	33.6	1	3	315	0.00	29.939 
21:45	45.4	45.4	45.4	62	33.2	1	3	315	0.00	29.949 
21:50	45.4	45.4	45.4	61	32.7	1	3	315	0.00	29.949 
21:55	45.2	45.2	45.2	61	32.6	1	5	248	0.00	29.949 
22:00	45.1	45.1	45.1	61	32.5	1	3	248	0.00	29.952 
22:05	45.1	45.1	45.1	61	32.5	1	3	248	0.00	29.952 
22:10	44.9	44.9	44.9	61	32.3	1	3	248	0.00	29.952 
22:15	44.8	44.8	44.8	61	32.2	0	3	248	0.00	29.961 
22:20	44.8	44.8	44.8	60	31.8	1	3	248	0.00	29.961 
22:25	44.8	44.8	44.8	60	31.8	1	5	248	0.00	29.961 
22:30	44.8	44.8	44.8	60	31.8	0	2	248	0.00	29.964 
22:35	44.5	44.5	44.5	61	31.9	0	1	248	0.00	29.964 
22:40	44.2	44.2	44.2	62	32.0	1	3	248	0.00	29.964 
22:45	44.1	44.1	44.1	64	32.7	0	2	248	0.00	29.968 
22:50	43.9	43.9	43.9	64	32.5	0	2	248	0.00	29.968 
22:55	43.8	43.8	43.8	65	32.8	0	1	248	0.00	29.968 
23:00	43.5	43.5	43.5	65	32.5	0	1	248	0.00	29.975 
23:05	43.3	43.3	43.3	66	32.7	0	1	248	0.00	29.975 
23:10	43.1	43.1	43.1	67	32.9	0	1	248	0.00	29.975 
23:15	42.9	42.9	42.9	68	33.1	0	1	248	0.00	29.976 
23:20	42.8	42.8	42.8	68	33.0	0	2	248	0.00	29.976 
23:25	42.8	42.8	42.8	68	33.0	0	1	248	0.00	29.976 
23:30	42.6	42.6	42.6	68	32.8	0	1	248	0.00	29.980 
23:35	42.3	42.3	42.3	69	32.9	0	0	---	0.00	29.980 
23:40	42.1	42.1	42.1	69	32.7	0	0	---	0.00	29.980 
23:45	41.8	41.8	41.8	70	32.7	0	0	---	0.00	29.981 
23:50	41.6	41.6	41.6	70	32.6	0	1	248	0.00	29.981 
23:55	41.6	41.6	41.6	71	32.9	0	1	248	0.00	29.981 

CoCoRaHS
IN-AL-39
A2 Web Hosting
Creative Commons License
GoDaddy
search engine by freefind advanced

loaded 2018-12-19 11:28:57 • last modified 2010-11-18 10:43:29
Privacy PolicyDisclaimer
• wx.awcolley.com is powered by PmWiki v.2002016 •
• all content (unless otherwise noted) © 2018 A W Colley